Time;durP1;ratioP1;P1;durP2;ratioP2;P2;SDS_P1;SDS_P2;PMS_P1;PMS_P2;Temp;Humidity;BMP_temperature;BMP_pressure;BME280_temperature;BME280_humidity;BME280_pressure;Samples;Min_cycle;Max_cycle;Signal;HPM_P1;HPM_P2
2021/10/04 00:01:46;;;;;;;9.63;5.22;;;;;;;14.32;47.11;101569.37;1753579;81;21039;-68
2021/10/04 00:04:14;;;;;;;8.40;5.85;;;;;;;14.45;47.10;101567.95;1769063;78;21022;-68
2021/10/04 00:06:43;;;;;;;9.48;5.10;;;;;;;14.51;47.17;101574.66;1787823;78;20915;-70
2021/10/04 00:09:11;;;;;;;7.20;5.00;;;;;;;14.50;47.38;101567.77;1785814;79;20900;-69
2021/10/04 00:11:37;;;;;;;7.87;4.78;;;;;;;14.53;47.49;101575.79;1789962;78;21098;-69
2021/10/04 00:14:04;;;;;;;9.10;4.87;;;;;;;14.66;47.24;101565.99;1788094;79;21002;-68
2021/10/04 00:16:32;;;;;;;10.08;5.15;;;;;;;14.69;47.47;101574.33;1787860;78;20872;-69
2021/10/04 00:19:00;;;;;;;7.65;5.08;;;;;;;14.52;47.92;101573.66;1784006;78;21493;-72
2021/10/04 00:21:26;;;;;;;9.30;5.53;;;;;;;14.70;47.76;101575.14;1777218;78;21018;-69
2021/10/04 00:23:53;;;;;;;9.53;5.50;;;;;;;15.03;47.35;101573.84;1783239;78;21117;-68
2021/10/04 00:26:19;;;;;;;8.33;5.05;;;;;;;14.79;47.59;101579.34;1785039;78;21090;-69
2021/10/04 00:28:46;;;;;;;7.10;5.17;;;;;;;14.68;47.98;101574.02;1768100;80;21063;-69
2021/10/04 00:31:13;;;;;;;9.58;5.40;;;;;;;14.70;48.09;101579.08;1765919;80;22537;-70
2021/10/04 00:33:39;;;;;;;8.28;5.33;;;;;;;14.46;48.77;101582.20;1744234;81;21571;-68
2021/10/04 00:36:06;;;;;;;10.70;6.00;;;;;;;14.12;49.80;101581.30;1770077;79;20987;-69
2021/10/04 00:38:33;;;;;;;6.87;4.92;;;;;;;13.92;50.84;101582.73;1786604;78;20982;-69
2021/10/04 00:41:00;;;;;;;7.65;5.22;;;;;;;13.73;52.45;101582.17;1790051;78;20943;-72
2021/10/04 00:43:26;;;;;;;8.78;5.28;;;;;;;13.85;52.72;101574.23;1784839;78;21123;-69
2021/10/04 00:45:53;;;;;;;8.18;5.90;;;;;;;13.95;53.16;101579.28;1780127;78;21452;-69
2021/10/04 00:48:20;;;;;;;8.83;5.33;;;;;;;14.02;52.95;101574.98;1751217;80;21010;-68
2021/10/04 00:50:46;;;;;;;8.20;5.08;;;;;;;13.98;53.76;101576.78;1733145;81;20951;-72
2021/10/04 00:53:12;;;;;;;10.03;5.92;;;;;;;14.20;53.14;101565.50;1733725;81;21082;-69
2021/10/04 00:55:39;;;;;;;7.30;5.28;;;;;;;14.25;52.87;101564.50;1788774;78;22343;-69
2021/10/04 00:58:06;;;;;;;7.40;5.15;;;;;;;14.20;53.12;101575.17;1742241;81;20976;-68
2021/10/04 01:00:33;;;;;;;7.87;5.10;;;;;;;14.24;53.36;101576.46;1748048;81;21491;-69
2021/10/04 01:02:59;;;;;;;8.05;5.35;;;;;;;14.05;53.81;101582.97;1771996;80;20952;-70
2021/10/04 01:05:25;;;;;;;7.53;4.78;;;;;;;14.11;54.28;101587.53;1773263;79;21028;-68
2021/10/04 01:07:53;;;;;;;8.25;5.15;;;;;;;13.99;54.58;101582.37;1774266;79;21860;-68
2021/10/04 01:10:22;;;;;;;8.15;4.67;;;;;;;14.11;54.88;101577.86;1741745;80;20985;-71
2021/10/04 01:12:49;;;;;;;8.15;4.90;;;;;;;14.13;54.44;101581.64;1712154;81;21010;-66
2021/10/04 01:15:17;;;;;;;8.75;4.85;;;;;;;14.58;53.08;101576.06;1704190;82;21082;-71
2021/10/04 01:17:44;;;;;;;7.00;5.03;;;;;;;14.41;53.18;101575.86;1742996;81;21142;-66
2021/10/04 01:20:23;;;;;;;7.62;5.50;;;;;;;14.35;53.22;101574.24;1745494;80;22099;-67
2021/10/04 01:22:50;;;;;;;11.45;5.28;;;;;;;14.19;53.68;101578.30;1737667;81;21060;-69
2021/10/04 01:25:17;;;;;;;8.18;5.60;;;;;;;14.24;53.86;101580.39;1710697;83;20961;-68
2021/10/04 01:27:46;;;;;;;7.25;4.35;;;;;;;14.17;54.28;101579.45;1713620;82;21073;-67
2021/10/04 01:30:13;;;;;;;6.12;4.65;;;;;;;14.06;54.70;101583.31;1741064;80;21002;-70
2021/10/04 01:32:40;;;;;;;8.08;5.15;;;;;;;13.75;56.58;101581.52;1739909;81;21136;-68
2021/10/04 01:35:08;;;;;;;7.25;4.78;;;;;;;13.79;57.50;101580.19;1733385;80;21077;-71
2021/10/04 01:37:35;;;;;;;7.53;5.20;;;;;;;13.80;57.67;101579.19;1744639;80;21118;-66
2021/10/04 01:40:04;;;;;;;8.50;5.05;;;;;;;13.84;57.56;101574.42;1736173;82;21153;-68
2021/10/04 01:42:32;;;;;;;6.83;5.00;;;;;;;13.89;58.07;101578.64;1744322;80;21107;-67
2021/10/04 01:44:59;;;;;;;8.68;5.45;;;;;;;13.83;58.67;101574.92;1742443;80;21818;-70
2021/10/04 01:47:25;;;;;;;8.60;5.33;;;;;;;13.75;59.53;101578.90;1743181;80;20981;-69
2021/10/04 01:49:52;;;;;;;7.03;4.80;;;;;;;13.70;59.73;101582.51;1742394;80;21084;-68
2021/10/04 01:52:18;;;;;;;6.17;4.03;;;;;;;13.74;60.57;101583.80;1741253;80;21024;-67
2021/10/04 01:54:45;;;;;;;8.55;5.12;;;;;;;13.72;60.01;101588.91;1740916;80;21041;-67
2021/10/04 01:57:12;;;;;;;7.83;5.00;;;;;;;13.39;62.15;101587.21;1743907;80;21115;-69
2021/10/04 01:59:38;;;;;;;8.80;6.25;;;;;;;13.61;61.08;101581.73;1743289;80;20973;-70
2021/10/04 02:02:05;;;;;;;6.90;4.65;;;;;;;13.69;60.82;101586.62;1738708;80;21072;-66
2021/10/04 02:04:33;;;;;;;7.47;4.72;;;;;;;13.44;62.54;101587.20;1733449;80;21389;-67
2021/10/04 02:07:00;;;;;;;11.63;6.12;;;;;;;13.43;63.70;101582.95;1724107;81;21487;-66
2021/10/04 02:09:27;;;;;;;8.45;5.10;;;;;;;13.58;63.49;101582.56;1747592;81;21157;-69
2021/10/04 02:11:53;;;;;;;9.45;5.58;;;;;;;13.59;64.25;101583.69;1748820;81;20951;-72
2021/10/04 02:14:21;;;;;;;7.10;4.67;;;;;;;13.38;66.04;101593.94;1742814;81;20920;-66
2021/10/04 02:16:48;;;;;;;8.63;4.28;;;;;;;13.30;66.73;101584.80;1750114;81;21074;-69
2021/10/04 02:19:14;;;;;;;9.38;4.95;;;;;;;13.18;68.33;101592.14;1746915;81;21419;-68
2021/10/04 02:21:43;;;;;;;9.80;5.33;;;;;;;13.25;67.43;101600.18;1747137;81;20973;-71
2021/10/04 02:24:12;;;;;;;7.83;5.83;;;;;;;13.12;69.33;101602.80;1748902;81;21090;-68
2021/10/04 02:26:42;;;;;;;7.80;5.78;;;;;;;13.11;69.80;101599.87;1748945;81;21090;-68
2021/10/04 02:29:08;;;;;;;7.78;5.08;;;;;;;13.08;70.17;101599.38;1748681;81;20928;-71
2021/10/04 02:31:35;;;;;;;10.48;6.12;;;;;;;13.32;68.23;101601.15;1749869;81;21086;-68
2021/10/04 02:34:02;;;;;;;8.53;5.60;;;;;;;13.13;69.30;101603.13;1747344;81;21148;-69
2021/10/04 02:36:28;;;;;;;7.40;5.33;;;;;;;13.24;69.25;101607.22;1721540;81;22417;-69
2021/10/04 02:38:54;;;;;;;7.67;5.25;;;;;;;13.07;70.89;101606.42;1755239;80;20988;-70
2021/10/04 02:41:21;;;;;;;7.30;4.95;;;;;;;12.98;71.56;101606.59;1717813;83;21100;-69
2021/10/04 02:43:48;;;;;;;7.85;5.40;;;;;;;13.04;71.23;101604.62;1752351;80;20907;-69
2021/10/04 02:46:14;;;;;;;7.80;4.92;;;;;;;13.56;68.28;101601.55;1715998;81;21143;-69
2021/10/04 02:48:40;;;;;;;8.58;5.55;;;;;;;13.28;69.28;101598.05;1749340;81;21071;-69
2021/10/04 02:51:07;;;;;;;9.40;5.85;;;;;;;13.55;68.88;101603.86;1750353;81;21098;-69
2021/10/04 02:53:34;;;;;;;7.37;4.80;;;;;;;13.62;67.81;101605.63;1758658;80;21143;-70
2021/10/04 02:56:00;;;;;;;9.53;6.33;;;;;;;13.66;67.96;101602.18;1717838;81;20941;-70
2021/10/04 02:58:27;;;;;;;11.63;5.62;;;;;;;13.80;68.92;101596.23;1748377;81;21146;-70
2021/10/04 03:00:53;;;;;;;8.43;5.72;;;;;;;13.96;67.11;101594.51;1732832;81;21013;-68
2021/10/04 03:03:20;;;;;;;6.20;4.10;;;;;;;14.02;66.71;101593.83;1691604;83;21120;-69
2021/10/04 03:05:48;;;;;;;7.78;4.62;;;;;;;14.21;65.28;101596.00;1723430;82;21025;-69
2021/10/04 03:08:14;;;;;;;9.40;5.22;;;;;;;14.56;62.20;101589.87;1692853;84;21071;-68
2021/10/04 03:10:42;;;;;;;10.93;6.75;;;;;;;14.53;63.23;101594.97;1691224;84;22257;-68
2021/10/04 03:13:09;;;;;;;8.10;5.78;;;;;;;14.26;64.30;101602.84;1694774;84;20949;-68
2021/10/04 03:15:36;;;;;;;9.78;6.83;;;;;;;14.25;65.94;101604.34;1692439;84;21079;-69
2021/10/04 03:18:03;;;;;;;11.38;6.80;;;;;;;14.17;65.26;101602.59;1689729;84;21546;-69
2021/10/04 03:20:30;;;;;;;12.45;6.70;;;;;;;14.24;65.73;101601.38;1691104;84;21169;-69
2021/10/04 03:22:57;;;;;;;9.75;6.22;;;;;;;14.14;67.12;101604.24;1691258;83;22352;-69
2021/10/04 03:25:24;;;;;;;9.68;6.85;;;;;;;14.65;64.50;101592.73;1692855;83;20960;-68
2021/10/04 03:27:51;;;;;;;7.92;5.87;;;;;;;14.67;63.13;101601.27;1723003;83;21091;-70
2021/10/04 03:30:18;;;;;;;10.10;5.70;;;;;;;14.66;62.71;101604.89;1666120;84;21115;-69
2021/10/04 03:32:46;;;;;;;8.00;5.62;;;;;;;14.67;62.57;101599.95;1720161;82;21381;-67
2021/10/04 03:35:13;;;;;;;11.45;6.30;;;;;;;14.54;63.79;101600.53;1716852;82;21160;-67
2021/10/04 03:37:39;;;;;;;7.97;5.30;;;;;;;14.78;63.29;101598.22;1686167;84;20949;-67
2021/10/04 03:40:08;;;;;;;8.30;5.05;;;;;;;14.54;64.54;101604.47;1691782;83;21080;-69
2021/10/04 03:42:34;;;;;;;7.10;4.72;;;;;;;14.53;64.39;101602.03;1689555;84;21649;-71
2021/10/04 03:45:01;;;;;;;8.18;5.12;;;;;;;14.90;62.88;101608.29;1692076;83;21446;-68
2021/10/04 03:47:28;;;;;;;9.85;6.00;;;;;;;15.14;61.83;101604.09;1689738;84;21220;-72
2021/10/04 03:49:54;;;;;;;9.23;5.92;;;;;;;15.07;62.04;101609.75;1690916;84;21049;-70
2021/10/04 03:52:21;;;;;;;8.15;5.60;;;;;;;15.42;60.44;101607.41;1691712;84;21569;-69
2021/10/04 03:54:49;;;;;;;8.58;5.50;;;;;;;15.80;59.54;101605.02;1688160;84;21500;-69
2021/10/04 03:57:15;;;;;;;9.08;5.90;;;;;;;15.82;58.97;101599.56;1689785;84;21816;-68
2021/10/04 03:59:43;;;;;;;9.48;7.00;;;;;;;15.93;59.42;101608.80;1688138;84;21961;-68
2021/10/04 04:02:12;;;;;;;10.85;5.97;;;;;;;16.14;58.30;101607.99;1687296;84;21079;-68
2021/10/04 04:04:39;;;;;;;9.15;5.30;;;;;;;16.53;56.68;101608.91;1688886;84;21546;-71
2021/10/04 04:07:07;;;;;;;7.65;5.92;;;;;;;16.95;55.45;101611.19;1688091;84;21102;-71
2021/10/04 04:09:33;;;;;;;9.03;5.60;;;;;;;17.57;52.21;101609.00;1687366;84;21539;-68
2021/10/04 04:12:00;;;;;;;8.83;5.50;;;;;;;17.88;51.00;101605.94;1687302;84;21159;-69
2021/10/04 04:14:27;;;;;;;10.50;6.10;;;;;;;18.34;49.13;101607.05;1690721;84;21413;-70
2021/10/04 04:16:53;;;;;;;12.30;6.33;;;;;;;18.73;47.71;101600.19;1686228;84;21406;-70
2021/10/04 04:19:20;;;;;;;9.47;5.87;;;;;;;19.08;46.37;101600.75;1687720;83;21390;-70
2021/10/04 04:21:46;;;;;;;8.23;5.63;;;;;;;19.52;45.54;101597.38;1687687;84;21507;-72
2021/10/04 04:24:16;;;;;;;7.60;5.30;;;;;;;19.89;44.08;101601.62;1688608;84;21252;-70
2021/10/04 04:26:41;;;;;;;8.97;5.33;;;;;;;20.87;41.52;101602.44;1685691;84;21650;-70
2021/10/04 04:29:08;;;;;;;7.27;5.07;;;;;;;20.87;41.52;101602.44;1688141;84;21363;-66
2021/10/04 04:31:34;;;;;;;7.37;5.00;;;;;;;21.11;40.89;101599.47;1678913;84;21602;-68
2021/10/04 04:34:00;;;;;;;8.47;5.07;;;;;;;21.38;40.10;101598.69;1685034;84;21694;-70
2021/10/04 04:36:27;;;;;;;9.73;5.47;;;;;;;21.74;39.04;101600.98;1690285;84;21763;-66
2021/10/04 04:38:54;;;;;;;13.07;8.47;;;;;;;21.36;38.91;101598.09;1684853;84;21714;-66
2021/10/04 04:41:20;;;;;;;16.57;11.00;;;;;;;21.08;39.28;101598.58;1688120;84;21668;-66
2021/10/04 04:43:47;;;;;;;20.00;13.77;;;;;;;20.48;39.52;101598.27;1713623;83;21150;-66
2021/10/04 04:46:13;;;;;;;14.23;9.57;;;;;;;20.48;39.52;101598.27;1687583;84;21471;-68
2021/10/04 04:48:39;;;;;;;10.27;7.53;;;;;;;20.21;39.72;101600.30;1683448;83;22296;-67
2021/10/04 04:51:06;;;;;;;10.13;6.50;;;;;;;20.16;39.86;101597.78;1684474;84;21693;-67
2021/10/04 04:53:32;;;;;;;10.20;6.03;;;;;;;19.89;40.43;101602.43;1685227;83;21651;-68
2021/10/04 04:55:59;;;;;;;10.73;6.63;;;;;;;19.61;40.89;101608.52;1683622;84;21746;-66
2021/10/04 04:58:25;;;;;;;7.93;5.13;;;;;;;19.48;41.26;101612.04;1685645;84;21647;-67
2021/10/04 05:00:52;;;;;;;8.33;5.33;;;;;;;19.22;41.70;101609.47;1682707;84;21832;-66
2021/10/04 05:03:19;;;;;;;10.37;7.33;;;;;;;19.08;41.90;101614.77;1688583;83;21849;-65
2021/10/04 05:05:45;;;;;;;15.67;10.83;;;;;;;19.08;41.90;101614.77;1713062;82;21765;-65
2021/10/04 05:08:12;;;;;;;9.90;7.50;;;;;;;19.18;42.17;101627.06;1692109;84;21416;-69
2021/10/04 05:10:38;;;;;;;11.00;6.13;;;;;;;19.18;42.17;101627.06;1690839;84;21550;-66
2021/10/04 05:13:05;;;;;;;8.40;5.60;;;;;;;17.39;45.46;101635.09;1691301;84;22115;-66
2021/10/04 05:15:35;;;;;;;10.77;5.80;;;;;;;17.90;45.74;101638.19;1690744;84;22776;-64
2021/10/04 05:18:02;;;;;;;8.47;5.87;;;;;;;17.90;45.74;101638.19;1692426;84;22009;-67
2021/10/04 05:20:29;;;;;;;7.33;4.63;;;;;;;18.09;45.33;101643.73;1681053;84;21219;-66
2021/10/04 05:22:55;;;;;;;6.57;5.07;;;;;;;18.09;45.33;101643.73;1693041;84;22309;-69
2021/10/04 05:25:22;;;;;;;7.07;5.10;;;;;;;17.79;45.88;101641.39;1693186;84;21534;-68
2021/10/04 05:27:48;;;;;;;7.73;5.20;;;;;;;18.00;45.31;101641.78;1723132;82;21973;-67
2021/10/04 05:30:15;;;;;;;7.63;5.03;;;;;;;17.49;46.21;101642.12;1693416;84;21457;-73
2021/10/04 05:32:41;;;;;;;7.87;5.50;;;;;;;17.33;47.34;101641.13;1691192;84;21784;-68
2021/10/04 05:35:09;;;;;;;6.53;4.73;;;;;;;17.48;47.48;101647.09;1690631;84;21827;-69
2021/10/04 05:37:35;;;;;;;7.77;5.30;;;;;;;17.59;47.45;101642.59;1692051;84;21312;-66
2021/10/04 05:40:04;;;;;;;6.53;4.63;;;;;;;17.75;47.31;101637.02;1687261;84;21499;-71
2021/10/04 05:42:32;;;;;;;5.97;4.13;;;;;;;17.92;46.85;101645.41;1689965;83;21558;-67
2021/10/04 05:45:01;;;;;;;7.13;4.83;;;;;;;17.96;46.42;101645.33;1692319;84;22025;-68
2021/10/04 05:47:28;;;;;;;5.83;3.93;;;;;;;18.61;44.89;101646.98;1682555;83;21443;-68
2021/10/04 05:49:55;;;;;;;7.10;4.57;;;;;;;18.61;44.89;101646.98;1694019;84;21680;-68
2021/10/04 05:52:21;;;;;;;6.40;4.30;;;;;;;19.42;43.71;101638.79;1690060;84;21683;-66
2021/10/04 05:54:48;;;;;;;7.13;4.80;;;;;;;19.00;44.29;101646.70;1686402;83;22232;-68
2021/10/04 05:57:14;;;;;;;6.77;4.30;;;;;;;19.77;42.95;101637.69;1686307;84;21701;-69
2021/10/04 05:59:42;;;;;;;8.17;4.70;;;;;;;19.38;43.10;101648.67;1694310;84;21765;-67
2021/10/04 06:02:08;;;;;;;6.27;4.40;;;;;;;20.20;43.13;101645.02;1692225;83;21139;-68
2021/10/04 06:04:36;;;;;;;8.13;4.63;;;;;;;20.43;41.83;101643.95;1693140;84;21115;-67
2021/10/04 06:07:03;;;;;;;7.80;4.33;;;;;;;21.51;40.01;101633.00;1691834;84;21498;-68
2021/10/04 06:09:30;;;;;;;7.07;4.27;;;;;;;22.42;37.96;101635.70;1688932;83;20966;-68
2021/10/04 06:11:56;;;;;;;6.43;4.30;;;;;;;22.59;36.81;101634.81;1690463;84;21025;-69
2021/10/04 06:14:24;;;;;;;5.23;3.63;;;;;;;22.74;36.53;101644.20;1685963;83;21153;-68
2021/10/04 06:16:53;;;;;;;5.93;4.27;;;;;;;23.05;35.34;101645.20;1684901;83;20997;-70
2021/10/04 06:19:19;;;;;;;5.70;3.93;;;;;;;23.34;34.96;101641.31;1685865;84;20965;-70
2021/10/04 06:21:46;;;;;;;8.23;4.27;;;;;;;23.70;34.42;101644.19;1678089;84;21111;-68
2021/10/04 06:24:13;;;;;;;17.97;14.30;;;;;;;23.78;33.97;101640.34;1682898;84;21023;-70
2021/10/04 06:26:39;;;;;;;42.60;33.40;;;;;;;24.03;33.27;101640.83;1691826;84;21427;-68
2021/10/04 06:29:06;;;;;;;46.13;25.10;;;;;;;24.22;32.72;101647.28;1689640;83;21809;-71
2021/10/04 06:31:34;;;;;;;54.77;28.57;;;;;;;24.21;32.11;101642.48;1685041;83;21045;-70
2021/10/04 06:34:00;;;;;;;15.00;10.63;;;;;;;24.11;32.15;101640.16;1682286;84;21510;-70
2021/10/04 06:36:28;;;;;;;23.50;13.07;;;;;;;24.01;31.75;101647.42;1683159;83;21115;-72
2021/10/04 06:38:54;;;;;;;25.67;17.20;;;;;;;23.96;31.90;101644.16;1683207;84;21170;-72
2021/10/04 06:41:20;;;;;;;13.90;11.40;;;;;;;24.21;31.64;101647.00;1679795;84;21618;-73
2021/10/04 06:43:47;;;;;;;107.73;77.80;;;;;;;24.13;31.91;101642.04;1678571;84;21021;-70
2021/10/04 06:46:13;;;;;;;28.07;20.77;;;;;;;24.46;32.02;101647.97;1687636;84;21012;-69
2021/10/04 06:48:40;;;;;;;15.47;9.27;;;;;;;24.83;30.49;101642.95;1685078;83;21548;-69
2021/10/04 06:51:07;;;;;;;24.70;12.57;;;;;;;24.45;30.09;101644.50;1688110;84;21125;-69
2021/10/04 06:53:34;;;;;;;12.57;7.23;;;;;;;25.05;29.77;101647.54;1691096;84;20995;-68
2021/10/04 06:56:01;;;;;;;8.37;4.97;;;;;;;25.20;29.19;101637.11;1686834;84;21112;-70
2021/10/04 06:58:27;;;;;;;12.07;6.07;;;;;;;25.11;29.25;101646.57;1689847;83;21077;-69
2021/10/04 07:00:54;;;;;;;23.63;10.90;;;;;;;25.26;29.12;101640.63;1688302;84;20979;-70
2021/10/04 07:03:21;;;;;;;24.53;10.57;;;;;;;25.43;29.53;101644.87;1658499;83;21829;-67
2021/10/04 07:05:49;;;;;;;10.57;5.37;;;;;;;25.91;28.54;101641.14;1639884;86;21069;-68
2021/10/04 07:08:17;;;;;;;13.37;7.73;;;;;;;25.90;27.77;101641.67;1642245;86;21022;-71
2021/10/04 07:10:44;;;;;;;16.47;9.90;;;;;;;26.07;27.82;101640.78;1667084;85;22486;-68
2021/10/04 07:13:11;;;;;;;8.90;5.13;;;;;;;26.26;27.74;101640.69;1669028;85;21158;-68
2021/10/04 07:15:37;;;;;;;8.90;4.63;;;;;;;26.30;27.29;101637.78;1704809;83;21788;-70
2021/10/04 07:18:04;;;;;;;8.83;4.90;;;;;;;26.48;26.88;101631.78;1709551;83;21003;-71
2021/10/04 07:20:30;;;;;;;7.03;4.13;;;;;;;26.71;26.83;101630.11;1703708;83;20978;-68
2021/10/04 07:22:58;;;;;;;7.17;4.60;;;;;;;26.92;26.41;101629.69;1699952;83;21119;-70
2021/10/04 07:25:24;;;;;;;8.03;3.77;;;;;;;26.74;26.52;101630.10;1699987;83;21002;-69
2021/10/04 07:27:51;;;;;;;8.03;3.77;;;;;;;26.79;27.20;101634.17;1707502;83;21105;-70
2021/10/04 07:30:17;;;;;;;6.43;3.60;;;;;;;27.03;26.45;101632.69;1707907;83;20991;-74
2021/10/04 07:32:44;;;;;;;6.00;3.60;;;;;;;27.18;25.57;101640.02;1681957;82;21046;-70
2021/10/04 07:35:10;;;;;;;7.23;3.47;;;;;;;27.23;25.10;101626.66;1712554;82;21145;-70
2021/10/04 07:37:37;;;;;;;5.70;3.40;;;;;;;26.97;24.86;101630.23;1704924;83;21135;-71
2021/10/04 07:40:05;;;;;;;6.10;3.93;;;;;;;26.53;24.94;101635.86;1705629;83;21136;-70
2021/10/04 07:42:33;;;;;;;7.40;4.00;;;;;;;26.11;25.55;101632.00;1704044;83;21595;-72
2021/10/04 07:45:00;;;;;;;7.27;3.13;;;;;;;25.62;25.85;101636.55;1708847;83;21079;-70
2021/10/04 07:47:26;;;;;;;5.43;3.63;;;;;;;25.66;26.16;101632.31;1706259;83;21077;-71
2021/10/04 07:49:52;;;;;;;4.23;2.90;;;;;;;25.32;26.61;101640.98;1700749;82;20943;-73
2021/10/04 07:52:19;;;;;;;5.03;3.03;;;;;;;24.82;26.80;101629.87;1711119;82;21132;-69
2021/10/04 07:54:46;;;;;;;5.90;3.07;;;;;;;24.37;27.45;101638.21;1702908;82;21103;-73
2021/10/04 07:57:13;;;;;;;4.87;2.80;;;;;;;24.28;27.65;101631.64;1704249;82;21122;-69
2021/10/04 07:59:40;;;;;;;6.17;3.07;;;;;;;24.33;27.41;101635.75;1710419;83;21587;-72
2021/10/04 08:02:09;;;;;;;6.20;3.50;;;;;;;24.33;26.93;101631.75;1711146;81;21639;-71
2021/10/04 08:04:37;;;;;;;5.63;2.77;;;;;;;23.76;27.87;101626.47;1754549;81;22427;-74
2021/10/04 08:07:05;;;;;;;6.63;2.87;;;;;;;23.76;27.79;101626.47;1756051;81;21051;-70
2021/10/04 08:09:32;;;;;;;5.83;3.17;;;;;;;23.73;27.68;101633.08;1751607;81;21078;-71
2021/10/04 08:11:59;;;;;;;5.17;2.80;;;;;;;23.39;27.90;101625.45;1753076;81;21066;-72
2021/10/04 08:14:26;;;;;;;4.90;2.87;;;;;;;23.12;28.43;101627.00;1745167;81;21115;-73
2021/10/04 08:16:52;;;;;;;5.60;2.97;;;;;;;22.99;28.56;101632.02;1752359;80;21131;-71
2021/10/04 08:19:18;;;;;;;6.00;3.43;;;;;;;22.83;28.83;101631.65;1754182;81;20952;-71
2021/10/04 08:21:46;;;;;;;5.50;3.17;;;;;;;22.82;29.09;101631.89;1748970;81;21098;-70
2021/10/04 08:24:13;;;;;;;5.70;3.50;;;;;;;22.84;29.36;101629.80;1748821;80;21031;-72
2021/10/04 08:26:40;;;;;;;7.13;4.30;;;;;;;23.13;29.24;101625.42;1748281;80;21036;-72
2021/10/04 08:29:07;;;;;;;6.00;3.43;;;;;;;22.95;29.45;101633.53;1755399;81;21121;-70
2021/10/04 08:31:33;;;;;;;6.77;4.10;;;;;;;23.00;29.01;101627.82;1749891;80;21035;-70
2021/10/04 08:34:02;;;;;;;8.10;4.47;;;;;;;23.10;29.11;101627.74;1751343;81;20960;-73
2021/10/04 08:36:31;;;;;;;7.07;3.10;;;;;;;23.47;28.79;101622.41;1751558;81;20995;-72
2021/10/04 08:38:57;;;;;;;6.07;3.40;;;;;;;23.97;28.09;101623.13;1729982;80;21034;-73
2021/10/04 08:41:24;;;;;;;5.77;2.90;;;;;;;24.16;27.82;101616.26;1745330;81;21144;-73
2021/10/04 08:43:53;;;;;;;5.90;2.90;;;;;;;24.50;27.00;101612.59;1748142;80;21007;-73
2021/10/04 08:46:20;;;;;;;4.97;3.30;;;;;;;24.60;26.96;101615.95;1751032;81;20988;-74
2021/10/04 08:48:48;;;;;;;4.30;2.83;;;;;;;24.95;26.17;101606.31;1754067;81;20952;-73
2021/10/04 08:51:16;;;;;;;5.20;3.00;;;;;;;25.34;26.40;101610.30;1751572;80;21091;-73
2021/10/04 08:53:44;;;;;;;5.83;2.90;;;;;;;25.44;25.59;101600.28;1751173;81;21096;-72
2021/10/04 08:56:12;;;;;;;4.77;2.70;;;;;;;25.88;25.73;101601.06;1757698;81;21000;-73
2021/10/04 08:58:38;;;;;;;4.13;2.60;;;;;;;26.11;24.65;101599.13;1756165;81;21540;-73
2021/10/04 09:01:06;;;;;;;7.93;2.87;;;;;;;26.38;24.45;101602.55;1758565;81;21361;-72
2021/10/04 09:04:00;;;;;;;6.27;2.90;;;;;;;26.44;23.80;101590.84;1751784;81;22404;-73
2021/10/04 09:06:39;;;;;;;5.37;2.20;;;;;;;26.54;23.30;101596.01;1750704;81;21125;-74
2021/10/04 09:09:11;;;;;;;4.90;2.50;;;;;;;26.35;23.20;101596.37;1759298;81;20960;-72
2021/10/04 09:11:48;;;;;;;6.00;2.80;;;;;;;26.07;23.34;101588.14;1757894;81;20975;-72
2021/10/04 09:14:29;;;;;;;7.10;4.30;;;;;;;26.04;23.40;101588.64;1757810;81;20936;-72
2021/10/04 09:17:03;;;;;;;5.43;3.90;;;;;;;26.24;23.23;101597.89;1749262;81;21063;-72
2021/10/04 09:19:42;;;;;;;4.90;2.50;;;;;;;26.12;22.97;101584.70;1754676;81;21715;-72
2021/10/04 09:22:14;;;;;;;4.77;2.90;;;;;;;25.87;22.67;101596.75;1756428;81;21071;-68
2021/10/04 09:25:04;;;;;;;9.40;4.90;;;;;;;25.66;22.71;101585.58;1757268;81;20981;-71
2021/10/04 09:27:38;;;;;;;10.57;7.83;;;;;;;26.39;22.47;101574.75;1756995;81;21166;-71
2021/10/04 09:30:12;;;;;;;6.53;4.10;;;;;;;26.23;22.80;101575.70;1757916;81;21067;-68
2021/10/04 09:32:46;;;;;;;17.30;15.23;;;;;;;26.28;22.57;101568.25;1758185;81;21099;-71
2021/10/04 09:35:29;;;;;;;12.13;8.27;;;;;;;26.41;22.76;101581.20;1757645;80;21712;-69
2021/10/04 09:38:01;;;;;;;4.60;3.27;;;;;;;26.68;22.35;101557.05;1757366;81;21577;-70
2021/10/04 09:40:48;;;;;;;12.73;8.90;;;;;;;26.62;22.76;101558.08;1738224;81;21055;-71
2021/10/04 09:43:26;;;;;;;6.20;4.07;;;;;;;26.88;22.71;101553.14;1758502;81;20973;-69
2021/10/04 09:46:04;;;;;;;5.03;3.17;;;;;;;26.96;22.26;101545.68;1756031;81;21662;-71
2021/10/04 09:48:32;;;;;;;13.20;5.57;;;;;;;26.95;22.21;101554.78;1751432;81;21464;-70
2021/10/04 09:51:16;;;;;;;9.20;4.30;;;;;;;26.92;22.51;101551.55;1758579;81;21000;-71
2021/10/04 09:54:07;;;;;;;5.30;2.53;;;;;;;27.02;22.05;101553.48;1755468;81;22351;-72
2021/10/04 09:56:33;;;;;;;3.77;2.65;;;;;;;27.01;22.07;101547.86;1757733;81;21045;-71
2021/10/04 09:59:00;;;;;;;11.27;6.50;;;;;;;26.75;22.13;101560.31;1757571;81;21128;-70
2021/10/04 10:01:27;;;;;;;8.03;5.17;;;;;;;26.58;22.18;101563.14;1757813;81;21091;-69
2021/10/04 10:03:55;;;;;;;5.63;4.20;;;;;;;26.59;22.43;101562.60;1757161;81;20912;-71
2021/10/04 10:06:21;;;;;;;5.83;3.50;;;;;;;26.66;22.46;101557.30;1714748;81;21015;-71
2021/10/04 10:08:48;;;;;;;6.40;3.87;;;;;;;26.68;22.51;101563.75;1757294;81;21490;-71
2021/10/04 10:11:17;;;;;;;4.40;2.73;;;;;;;26.83;22.21;101556.34;1757785;80;21207;-68
2021/10/04 10:13:44;;;;;;;2.70;1.73;;;;;;;27.05;22.12;101539.58;1756045;81;20944;-69
2021/10/04 10:16:20;;;;;;;6.00;2.37;;;;;;;27.20;21.46;101547.39;1756685;81;21003;-69
2021/10/04 10:19:00;;;;;;;4.33;3.00;;;;;;;26.95;21.40;101533.38;1755942;81;21028;-69
2021/10/04 10:21:31;;;;;;;3.77;2.23;;;;;;;27.01;21.79;101532.31;1754185;81;21034;-68
2021/10/04 10:24:04;;;;;;;4.35;2.50;;;;;;;27.06;21.13;101517.63;1753185;80;21142;-68
2021/10/04 10:26:43;;;;;;;3.87;2.20;;;;;;;27.01;21.01;101529.13;1742771;81;20972;-68
2021/10/04 10:29:21;;;;;;;;;;;;;;;26.92;21.05;101527.47;1758246;81;21004;-68
2021/10/04 10:31:58;;;;;;;3.50;2.20;;;;;;;26.91;20.90;101525.06;1755758;81;20122;-68
2021/10/04 10:34:39;;;;;;;4.23;2.13;;;;;;;26.78;21.19;101520.17;1755919;81;20928;-69
2021/10/04 10:37:22;;;;;;;3.83;2.30;;;;;;;26.86;20.99;101517.03;1753184;81;21758;-73
2021/10/04 10:39:56;;;;;;;5.80;3.30;;;;;;;27.09;21.17;101518.45;1754853;81;20968;-69
2021/10/04 10:42:38;;;;;;;4.23;2.30;;;;;;;27.24;21.22;101513.67;1755887;81;20960;-68
2021/10/04 10:45:09;;;;;;;4.37;2.10;;;;;;;26.81;21.26;101512.97;1754589;81;21001;-70
2021/10/04 10:47:43;;;;;;;6.60;2.77;;;;;;;26.54;21.08;101512.58;1755500;81;22015;-66
2021/10/04 10:50:18;;;;;;;3.20;1.77;;;;;;;26.40;21.19;101517.56;1754371;80;21704;-68
2021/10/04 10:52:58;;;;;;;5.97;3.10;;;;;;;26.32;21.55;101516.69;1753387;81;21581;-69
2021/10/04 10:55:32;;;;;;;5.50;2.47;;;;;;;26.51;21.70;101514.95;1749992;81;21006;-68
2021/10/04 10:58:02;;;;;;;4.10;1.67;;;;;;;26.65;21.53;101514.77;1755915;81;20995;-69
2021/10/04 11:00:51;;;;;;;3.12;2.00;;;;;;;26.81;21.37;101505.75;1751460;81;22178;-71
2021/10/04 11:03:20;;;;;;;4.60;2.47;;;;;;;27.29;20.82;101504.34;1752519;80;21557;-70
2021/10/04 11:06:04;;;;;;;3.37;2.00;;;;;;;27.15;21.22;101500.81;1762260;81;21054;-72
2021/10/04 11:08:50;;;;;;;4.00;2.03;;;;;;;27.23;20.86;101499.48;1760318;81;22472;-67
2021/10/04 11:11:22;;;;;;;3.90;2.10;;;;;;;27.15;20.97;101505.36;1757357;80;20976;-70
2021/10/04 11:14:06;;;;;;;;;;;;;;;27.38;20.85;101491.48;1755830;81;22445;-68
2021/10/04 11:16:41;;;;;;;3.23;1.90;;;;;;;27.76;20.62;101495.30;1749355;81;21137;-67
2021/10/04 11:19:08;;;;;;;3.77;2.00;;;;;;;27.68;20.94;101495.81;1743051;81;20930;-70
2021/10/04 11:21:37;;;;;;;4.43;2.33;;;;;;;27.68;20.81;101483.22;1748711;81;21330;-70
2021/10/04 11:24:05;;;;;;;4.07;2.30;;;;;;;27.61;20.66;101482.67;1731243;81;21565;-69
2021/10/04 11:26:35;;;;;;;6.20;1.90;;;;;;;27.46;20.71;101493.38;1748243;81;21063;-68
2021/10/04 11:29:04;;;;;;;3.23;2.03;;;;;;;27.46;20.36;101486.14;1751150;81;21569;-69
2021/10/04 11:31:36;;;;;;;3.87;1.90;;;;;;;27.37;20.42;101493.11;1749637;81;21044;-70